Time;durP1;ratioP1;P1;durP2;ratioP2;P2;SDS_P1;SDS_P2;PMS_P1;PMS_P2;Temp;Humidity;BMP_temperature;BMP_pressure;BME280_temperature;BME280_humidity;BME280_pressure;Samples;Min_cycle;Max_cycle;Signal;HPM_P1;HPM_P2
2022/08/07 00:00:34;;;;;;;9.77;4.20;;;;;;;14.58;91.44;102642.13;5055463;28;20030;-48
2022/08/07 00:02:59;;;;;;;8.10;4.13;;;;;;;14.64;91.75;102636.22;5064801;28;20055;-48
2022/08/07 00:05:26;;;;;;;9.60;4.43;;;;;;;14.50;92.38;102629.41;5050637;28;20344;-49
2022/08/07 00:07:52;;;;;;;8.20;4.55;;;;;;;14.39;92.92;102637.63;5036448;28;20082;-50
2022/08/07 00:10:17;;;;;;;10.43;4.60;;;;;;;14.26;93.40;102629.84;5037210;28;20053;-49
2022/08/07 00:12:43;;;;;;;8.10;3.63;;;;;;;14.25;93.22;102630.84;5076550;28;20462;-47
2022/08/07 00:15:09;;;;;;;7.40;3.58;;;;;;;14.24;95.06;102623.75;5062386;28;20036;-49
2022/08/07 00:17:35;;;;;;;9.18;3.97;;;;;;;14.28;94.76;102627.88;5070442;28;20021;-49
2022/08/07 00:20:00;;;;;;;11.48;4.68;;;;;;;14.30;94.18;102624.03;5055993;28;20236;-48
2022/08/07 00:22:26;;;;;;;6.50;4.05;;;;;;;14.23;94.72;102617.53;5060518;28;20095;-49
2022/08/07 00:24:51;;;;;;;6.43;3.92;;;;;;;14.20;95.48;102619.66;5046257;28;20521;-48
2022/08/07 00:27:16;;;;;;;8.65;4.85;;;;;;;14.20;95.14;102620.50;5056760;28;20016;-50
2022/08/07 00:29:42;;;;;;;12.57;7.70;;;;;;;14.23;96.03;102617.53;5061073;28;20032;-47
2022/08/07 00:32:08;;;;;;;10.63;6.60;;;;;;;14.28;95.36;102615.25;5073956;28;20039;-49
2022/08/07 00:34:34;;;;;;;8.27;5.43;;;;;;;14.26;95.55;102603.81;5074603;28;20040;-49
2022/08/07 00:36:59;;;;;;;9.63;4.75;;;;;;;14.25;95.57;102606.63;5076348;28;20083;-49
2022/08/07 00:39:25;;;;;;;15.20;5.68;;;;;;;14.23;95.16;102609.47;5074845;28;20046;-49
2022/08/07 00:41:52;;;;;;;7.90;5.05;;;;;;;14.22;95.88;102609.59;5073425;28;20643;-49
2022/08/07 00:44:18;;;;;;;8.52;4.82;;;;;;;14.14;96.39;102599.59;5054985;28;20291;-48
2022/08/07 00:46:43;;;;;;;10.38;6.90;;;;;;;14.17;96.88;102596.59;5054131;28;20351;-48
2022/08/07 00:49:09;;;;;;;9.70;5.80;;;;;;;14.09;96.72;102594.63;5055145;28;20024;-47
2022/08/07 00:51:34;;;;;;;9.05;5.55;;;;;;;14.12;98.01;102596.16;5053975;28;20483;-50
2022/08/07 00:54:00;;;;;;;7.40;4.80;;;;;;;14.10;97.51;102595.47;5073818;28;20063;-48
2022/08/07 00:56:27;;;;;;;8.82;5.60;;;;;;;13.99;97.78;102596.47;5066847;28;20027;-48
2022/08/07 00:58:53;;;;;;;7.55;5.07;;;;;;;13.98;98.31;102592.94;5066644;28;20696;-50
2022/08/07 01:01:19;;;;;;;11.98;4.70;;;;;;;13.99;99.18;102594.63;5074390;28;20254;-49
2022/08/07 01:03:44;;;;;;;9.25;4.90;;;;;;;13.98;98.69;102598.31;5066802;28;20034;-48
2022/08/07 01:06:10;;;;;;;7.47;5.00;;;;;;;13.98;98.59;102589.38;5074572;28;20016;-50
2022/08/07 01:08:36;;;;;;;10.23;5.53;;;;;;;13.92;99.33;102587.28;5075146;28;20028;-49
2022/08/07 01:11:02;;;;;;;9.35;5.03;;;;;;;13.86;99.10;102585.97;5074475;28;20312;-50
2022/08/07 01:13:27;;;;;;;8.80;5.10;;;;;;;13.78;99.48;102591.19;5060768;28;20071;-48
2022/08/07 01:15:55;;;;;;;8.02;4.97;;;;;;;13.76;100.00;102583.31;5053869;28;20024;-48
2022/08/07 01:18:21;;;;;;;8.52;5.50;;;;;;;13.72;99.67;102581.88;5052998;28;20456;-47
2022/08/07 01:20:58;;;;;;;10.70;7.45;;;;;;;13.67;100.00;102583.28;5055642;28;20021;-49
2022/08/07 01:23:23;;;;;;;12.93;7.47;;;;;;;13.61;100.00;102581.97;5062953;28;20485;-50
2022/08/07 01:25:49;;;;;;;13.50;6.70;;;;;;;13.67;100.00;102577.91;5058629;28;20012;-50
2022/08/07 01:28:15;;;;;;;11.73;5.50;;;;;;;13.58;100.00;102567.00;5075272;28;20085;-45
2022/08/07 01:30:41;;;;;;;7.03;5.20;;;;;;;13.57;100.00;102570.66;5060064;28;20020;-50
2022/08/07 01:33:06;;;;;;;9.15;6.20;;;;;;;13.54;100.00;102564.75;5058679;28;20036;-49
2022/08/07 01:35:31;;;;;;;7.53;4.97;;;;;;;13.51;100.00;102571.25;5063958;28;20028;-49
2022/08/07 01:37:57;;;;;;;8.75;5.63;;;;;;;13.48;100.00;102565.31;5078403;28;20028;-48
2022/08/07 01:40:24;;;;;;;9.77;5.82;;;;;;;13.48;100.00;102565.31;5078956;28;20028;-49
2022/08/07 01:42:50;;;;;;;10.20;4.68;;;;;;;13.55;100.00;102569.13;5061316;28;20024;-49
2022/08/07 01:45:16;;;;;;;9.23;5.40;;;;;;;13.47;100.00;102566.28;5056510;28;20032;-48
2022/08/07 01:47:42;;;;;;;15.88;6.75;;;;;;;13.42;100.00;102561.31;5043212;28;20029;-50
2022/08/07 01:50:08;;;;;;;8.88;6.18;;;;;;;13.41;100.00;102559.66;5038475;28;20052;-50
2022/08/07 01:52:35;;;;;;;12.52;5.95;;;;;;;13.37;100.00;102558.19;5049412;28;20062;-50
2022/08/07 01:55:02;;;;;;;12.10;5.20;;;;;;;13.21;100.00;102558.69;5076039;28;20216;-50
2022/08/07 01:57:33;;;;;;;9.13;6.30;;;;;;;13.24;100.00;102564.63;5073261;28;20196;-46
2022/08/07 02:00:06;;;;;;;15.77;6.38;;;;;;;13.20;100.00;102554.31;5078087;28;20020;-47
2022/08/07 02:02:41;;;;;;;10.63;6.78;;;;;;;13.22;100.00;102557.69;5062243;28;20052;-49
2022/08/07 02:05:17;;;;;;;12.60;7.85;;;;;;;13.18;100.00;102562.50;5060127;28;20025;-48
2022/08/07 02:07:51;;;;;;;10.30;6.75;;;;;;;13.13;100.00;102559.38;5072862;28;20049;-49
2022/08/07 02:10:21;;;;;;;11.68;6.25;;;;;;;13.03;100.00;102554.00;5057541;28;20736;-47
2022/08/07 02:12:48;;;;;;;11.60;7.33;;;;;;;13.06;100.00;102553.69;5064772;28;20621;-46
2022/08/07 02:15:15;;;;;;;11.10;8.02;;;;;;;13.12;100.00;102562.19;5056532;28;20372;-47
2022/08/07 02:17:42;;;;;;;10.65;7.00;;;;;;;13.11;100.00;102561.34;5059925;28;20034;-46
2022/08/07 02:20:09;;;;;;;9.73;5.75;;;;;;;13.14;100.00;102561.06;5077770;28;20219;-46
2022/08/07 02:22:37;;;;;;;8.15;5.97;;;;;;;13.06;100.00;102560.91;5061925;28;20304;-48
2022/08/07 02:25:05;;;;;;;9.48;5.78;;;;;;;13.05;100.00;102554.69;5057744;28;20242;-47
2022/08/07 02:27:32;;;;;;;10.13;6.07;;;;;;;13.05;100.00;102551.13;5072190;28;20295;-47
2022/08/07 02:29:59;;;;;;;10.05;5.40;;;;;;;13.05;100.00;102552.00;5076340;28;20035;-48
2022/08/07 02:32:26;;;;;;;11.93;6.68;;;;;;;12.97;100.00;102551.84;5056801;28;20578;-49
2022/08/07 02:34:53;;;;;;;14.30;9.07;;;;;;;12.91;100.00;102555.03;5057563;28;20020;-47
2022/08/07 02:37:19;;;;;;;15.50;7.90;;;;;;;12.85;100.00;102556.44;5057696;28;20097;-49
2022/08/07 02:39:47;;;;;;;10.35;6.40;;;;;;;12.84;100.00;102551.22;5071342;28;20453;-49
2022/08/07 02:42:13;;;;;;;10.65;7.20;;;;;;;12.79;100.00;102546.25;5077199;28;20012;-49
2022/08/07 02:44:42;;;;;;;10.50;7.03;;;;;;;12.80;100.00;102545.28;5069509;28;20035;-48
2022/08/07 02:47:09;;;;;;;10.18;6.95;;;;;;;12.79;100.00;102540.03;5056070;28;20051;-48
2022/08/07 02:49:34;;;;;;;15.35;8.38;;;;;;;12.80;100.00;102539.91;5061440;28;20047;-47
2022/08/07 02:52:03;;;;;;;11.02;6.55;;;;;;;12.82;100.00;102535.25;5058958;28;20016;-48
2022/08/07 02:54:31;;;;;;;10.73;6.50;;;;;;;12.81;100.00;102532.69;5057608;28;20551;-50
2022/08/07 02:57:00;;;;;;;9.93;6.18;;;;;;;12.80;100.00;102536.38;5075160;28;20028;-48
2022/08/07 02:59:27;;;;;;;8.55;5.53;;;;;;;12.82;100.00;102529.06;5059026;28;20028;-45
2022/08/07 03:01:54;;;;;;;9.52;5.22;;;;;;;12.86;100.00;102528.66;5070439;28;20330;-49
2022/08/07 03:04:21;;;;;;;9.43;5.63;;;;;;;12.89;100.00;102532.88;5057339;28;20044;-49
2022/08/07 03:06:48;;;;;;;10.13;5.15;;;;;;;12.91;100.00;102533.59;5058358;28;20426;-48
2022/08/07 03:09:14;;;;;;;10.95;5.88;;;;;;;12.88;100.00;102542.78;5077808;28;20024;-48
2022/08/07 03:11:40;;;;;;;7.25;5.65;;;;;;;12.81;100.00;102525.53;5077809;28;20458;-47
2022/08/07 03:14:06;;;;;;;11.57;6.35;;;;;;;12.81;100.00;102541.63;5072140;28;20017;-51
2022/08/07 03:16:33;;;;;;;13.88;6.35;;;;;;;12.77;100.00;102533.97;5055248;28;20020;-49
2022/08/07 03:18:59;;;;;;;11.40;5.80;;;;;;;12.77;100.00;102539.31;5056777;28;20016;-50
2022/08/07 03:21:25;;;;;;;13.88;6.10;;;;;;;12.73;100.00;102541.44;5057455;28;20479;-48
2022/08/07 03:23:54;;;;;;;9.65;6.03;;;;;;;12.71;100.00;102534.50;5070915;28;20111;-47
2022/08/07 03:26:24;;;;;;;9.35;5.80;;;;;;;12.65;100.00;102535.88;5076977;28;20097;-49
2022/08/07 03:28:50;;;;;;;10.38;5.75;;;;;;;12.67;100.00;102542.78;5067321;28;20030;-49
2022/08/07 03:31:18;;;;;;;9.50;5.55;;;;;;;12.62;100.00;102538.81;5059682;28;20067;-49
2022/08/07 03:33:46;;;;;;;14.23;6.07;;;;;;;12.60;100.00;102538.13;5077050;28;20028;-47
2022/08/07 03:36:15;;;;;;;8.05;5.70;;;;;;;12.58;100.00;102543.59;5077073;28;20114;-49
2022/08/07 03:38:42;;;;;;;8.38;5.45;;;;;;;12.52;100.00;102535.25;5060549;28;20339;-49
2022/08/07 03:41:09;;;;;;;11.32;5.75;;;;;;;12.38;100.00;102531.91;5056963;28;20674;-49
2022/08/07 03:43:35;;;;;;;9.80;5.70;;;;;;;12.36;100.00;102535.72;5062634;28;20285;-46
2022/08/07 03:46:04;;;;;;;8.45;5.90;;;;;;;12.39;100.00;102528.25;5065688;28;20411;-49
2022/08/07 03:48:31;;;;;;;7.43;5.35;;;;;;;12.36;100.00;102535.72;5055962;28;20047;-47
2022/08/07 03:50:57;;;;;;;13.30;5.80;;;;;;;12.39;100.00;102538.13;5056918;28;20123;-49
2022/08/07 03:53:23;;;;;;;8.82;5.78;;;;;;;12.38;100.00;102533.75;5075047;28;20564;-50
2022/08/07 03:55:50;;;;;;;9.40;5.57;;;;;;;12.40;100.00;102542.50;5076875;28;20390;-50
2022/08/07 03:58:19;;;;;;;8.13;5.57;;;;;;;12.28;100.00;102534.53;5077252;28;20024;-50
2022/08/07 04:00:47;;;;;;;8.60;5.30;;;;;;;12.21;100.00;102540.56;5064157;28;20118;-48
2022/08/07 04:03:12;;;;;;;8.57;5.25;;;;;;;12.19;100.00;102543.34;5069226;28;20044;-50
2022/08/07 04:05:38;;;;;;;8.85;5.40;;;;;;;12.22;100.00;102543.09;5076207;28;20020;-48
2022/08/07 04:08:03;;;;;;;7.75;5.68;;;;;;;12.22;100.00;102543.09;5077314;28;20028;-46
2022/08/07 04:10:30;;;;;;;7.85;5.65;;;;;;;12.18;100.00;102547.00;5052975;28;20040;-45
2022/08/07 04:12:56;;;;;;;9.27;5.95;;;;;;;12.20;100.00;102550.38;5057109;28;20032;-47
2022/08/07 04:15:21;;;;;;;10.35;6.00;;;;;;;12.22;100.00;102555.63;5064321;28;20344;-50
2022/08/07 04:17:47;;;;;;;10.50;5.93;;;;;;;12.24;100.00;102548.34;5066991;28;20108;-50
2022/08/07 04:20:12;;;;;;;8.88;6.32;;;;;;;12.17;100.00;102548.00;5055469;28;20021;-49
2022/08/07 04:22:39;;;;;;;10.45;6.60;;;;;;;12.20;100.00;102555.75;5069212;28;20119;-48
2022/08/07 04:25:05;;;;;;;9.25;6.53;;;;;;;12.29;100.00;102556.81;5075614;28;20020;-48
2022/08/07 04:27:32;;;;;;;12.15;6.70;;;;;;;12.35;100.00;102563.47;5077319;28;20464;-47
2022/08/07 04:29:58;;;;;;;9.80;6.40;;;;;;;12.38;100.00;102563.22;5069924;28;20115;-48
2022/08/07 04:32:24;;;;;;;10.73;6.45;;;;;;;12.49;100.00;102568.50;5068577;28;20111;-46
2022/08/07 04:34:50;;;;;;;12.18;6.55;;;;;;;12.45;100.00;102570.59;5067501;28;20024;-46
2022/08/07 04:37:16;;;;;;;10.68;6.60;;;;;;;12.48;100.00;102564.13;5056469;28;20390;-45
2022/08/07 04:39:41;;;;;;;9.18;6.50;;;;;;;12.45;100.00;102569.75;5054403;28;20112;-45
2022/08/07 04:42:06;;;;;;;10.63;6.78;;;;;;;12.37;100.00;102559.69;5072574;28;20023;-45
2022/08/07 04:44:33;;;;;;;13.55;6.70;;;;;;;12.29;100.00;102564.88;5075868;28;20347;-45
2022/08/07 04:47:08;;;;;;;8.57;6.40;;;;;;;12.25;100.00;102571.44;5068110;28;20035;-45
2022/08/07 04:49:39;;;;;;;9.75;7.07;;;;;;;12.27;100.00;102569.47;5056042;28;20040;-45
2022/08/07 04:52:25;;;;;;;11.00;6.50;;;;;;;12.35;100.00;102568.84;5056065;28;20557;-45
2022/08/07 04:55:40;;;;;;;10.63;6.45;;;;;;;12.36;100.00;102574.06;5069874;28;20023;-45
2022/08/07 04:58:30;;;;;;;11.13;7.30;;;;;;;12.46;100.00;102574.16;5012561;28;20199;-50
2022/08/07 05:01:02;;;;;;;9.45;6.50;;;;;;;12.44;100.00;102582.31;5057805;28;20025;-49
2022/08/07 05:03:42;;;;;;;;;;;;;;;12.53;100.00;102585.19;5053175;28;20563;-48
2022/08/07 05:06:15;;;;;;;11.95;6.78;;;;;;;12.45;100.00;102581.31;5071704;28;19912;-47
2022/08/07 05:09:07;;;;;;;12.88;6.93;;;;;;;12.46;100.00;102577.66;5056100;28;20028;-50
2022/08/07 05:11:49;;;;;;;15.23;7.20;;;;;;;12.49;100.00;102580.09;5055406;28;20037;-47
2022/08/07 05:14:21;;;;;;;10.48;6.88;;;;;;;12.47;100.00;102578.50;5064971;28;20021;-46
2022/08/07 05:16:51;;;;;;;12.48;7.60;;;;;;;12.54;100.00;102568.94;5054938;28;20553;-46
2022/08/07 05:19:19;;;;;;;14.80;7.00;;;;;;;12.58;100.00;102575.78;5070114;28;20673;-47
2022/08/07 05:21:53;;;;;;;13.70;7.40;;;;;;;12.68;100.00;102581.19;5076589;28;20024;-46
2022/08/07 05:24:19;;;;;;;15.40;7.88;;;;;;;12.73;100.00;102581.66;5075858;28;20024;-47
2022/08/07 05:26:47;;;;;;;12.90;7.25;;;;;;;12.79;100.00;102580.25;5074406;28;20016;-48
2022/08/07 05:29:15;;;;;;;11.55;7.47;;;;;;;12.85;100.00;102579.72;5074657;28;20386;-50
2022/08/07 05:31:43;;;;;;;13.63;6.90;;;;;;;12.86;100.00;102579.59;5074604;28;20070;-46
2022/08/07 05:34:12;;;;;;;14.10;7.55;;;;;;;12.92;100.00;102588.94;5075654;28;20028;-47
2022/08/07 05:36:50;;;;;;;12.40;7.53;;;;;;;13.01;100.00;102585.44;5062728;28;20060;-48
2022/08/07 05:39:18;;;;;;;12.30;7.38;;;;;;;13.07;100.00;102578.69;5066805;28;20036;-47
2022/08/07 05:41:46;;;;;;;20.45;8.90;;;;;;;13.05;100.00;102578.84;5074350;28;20040;-48
2022/08/07 05:44:12;;;;;;;12.07;7.90;;;;;;;13.06;100.00;102583.19;5054610;28;20085;-45
2022/08/07 05:46:41;;;;;;;17.17;8.48;;;;;;;13.09;100.00;102590.13;5059325;28;20032;-47
2022/08/07 05:49:08;;;;;;;14.98;8.02;;;;;;;13.18;100.00;102585.78;5064554;28;20128;-44
2022/08/07 05:51:33;;;;;;;12.02;8.32;;;;;;;13.23;100.00;102594.28;5055995;28;20081;-44
2022/08/07 05:54:00;;;;;;;11.45;7.97;;;;;;;13.28;100.00;102589.34;5055953;28;20032;-45
2022/08/07 05:56:28;;;;;;;16.45;8.35;;;;;;;13.36;100.00;102592.25;5054616;28;20017;-49
2022/08/07 05:58:54;;;;;;;18.25;8.27;;;;;;;13.42;100.00;102593.53;5060817;28;20024;-45
2022/08/07 06:01:22;;;;;;;14.05;8.30;;;;;;;13.53;100.00;102595.28;5073901;28;20059;-48
2022/08/07 06:03:51;;;;;;;13.02;8.30;;;;;;;13.61;100.00;102585.53;5076101;28;20355;-47
2022/08/07 06:06:18;;;;;;;12.27;8.32;;;;;;;13.70;100.00;102588.38;5073885;28;20223;-46
2022/08/07 06:08:44;;;;;;;16.13;9.07;;;;;;;13.72;100.00;102589.09;5066853;28;20281;-47
2022/08/07 06:11:11;;;;;;;14.55;9.05;;;;;;;13.80;100.00;102605.34;5062949;28;20468;-48
2022/08/07 06:13:36;;;;;;;13.98;9.75;;;;;;;13.88;100.00;102600.09;5067088;28;20507;-50
2022/08/07 06:16:02;;;;;;;17.35;9.52;;;;;;;13.94;100.00;102602.25;5054409;28;20055;-45
2022/08/07 06:18:31;;;;;;;15.77;10.00;;;;;;;14.03;100.00;102597.88;5059795;28;20028;-47
2022/08/07 06:20:58;;;;;;;14.27;9.50;;;;;;;14.13;100.00;102606.78;5057355;28;20103;-50
2022/08/07 06:23:23;;;;;;;13.98;9.10;;;;;;;14.24;100.00;102603.13;5068785;28;20466;-47
2022/08/07 06:25:49;;;;;;;15.00;10.27;;;;;;;14.33;100.00;102602.25;5076830;28;20012;-47
2022/08/07 06:28:15;;;;;;;16.48;10.10;;;;;;;14.40;100.00;102602.53;5071770;28;20777;-49
2022/08/07 06:30:41;;;;;;;22.35;10.15;;;;;;;14.49;100.00;102608.88;5055868;28;20052;-48
2022/08/07 06:33:07;;;;;;;14.93;9.65;;;;;;;14.57;100.00;102603.63;5057813;28;20235;-49
2022/08/07 06:35:34;;;;;;;16.60;9.82;;;;;;;14.63;100.00;102603.09;5058828;28;20145;-48
2022/08/07 06:37:59;;;;;;;15.68;9.63;;;;;;;14.69;100.00;102605.19;5059207;28;20036;-48
2022/08/07 06:40:28;;;;;;;15.20;9.13;;;;;;;14.76;100.00;102597.38;5057581;28;20389;-45
2022/08/07 06:42:55;;;;;;;17.35;9.60;;;;;;;14.85;100.00;102599.22;5059149;28;20567;-46
2022/08/07 06:45:22;;;;;;;11.93;8.70;;;;;;;14.96;100.00;102597.34;5056111;28;20476;-50
2022/08/07 06:47:48;;;;;;;13.38;9.32;;;;;;;15.01;100.00;102587.00;5058963;28;20020;-47
2022/08/07 06:50:14;;;;;;;16.60;9.25;;;;;;;15.10;100.00;102592.34;5057514;28;20036;-47
2022/08/07 06:52:43;;;;;;;12.88;9.18;;;;;;;15.22;100.00;102586.75;5059443;28;20028;-50
2022/08/07 06:55:15;;;;;;;18.65;9.25;;;;;;;15.39;100.00;102583.25;5068219;28;20559;-50
2022/08/07 06:57:42;;;;;;;20.35;9.55;;;;;;;15.50;100.00;102579.53;5078703;28;20557;-49
2022/08/07 07:00:09;;;;;;;13.30;9.02;;;;;;;15.55;100.00;102585.28;5076544;28;20590;-47
2022/08/07 07:02:35;;;;;;;13.95;9.05;;;;;;;15.65;100.00;102582.53;5077398;28;20048;-48
2022/08/07 07:05:01;;;;;;;19.48;9.02;;;;;;;15.84;100.00;102590.50;5076881;28;20020;-50
2022/08/07 07:07:26;;;;;;;14.80;9.55;;;;;;;15.97;100.00;102575.78;5075927;28;20027;-49
2022/08/07 07:09:52;;;;;;;13.75;9.10;;;;;;;16.15;100.00;102584.72;5057148;28;20024;-49
2022/08/07 07:12:38;;;;;;;16.63;9.48;;;;;;;16.33;100.00;102581.19;5057792;28;20550;-49
2022/08/07 07:15:23;;;;;;;13.35;8.25;;;;;;;16.52;98.79;102589.06;5058284;28;20031;-50
2022/08/07 07:18:25;;;;;;;15.48;8.55;;;;;;;16.73;97.95;102593.25;5070871;28;20028;-48
2022/08/07 07:21:07;;;;;;;13.05;8.57;;;;;;;16.90;94.36;102600.44;5035494;28;20036;-46
2022/08/07 07:23:33;;;;;;;11.95;8.30;;;;;;;17.07;94.84;102598.69;5056932;28;20024;-43
2022/08/07 07:26:04;;;;;;;11.57;8.43;;;;;;;17.22;92.90;102587.28;5059387;28;20507;-48
2022/08/07 07:28:39;;;;;;;14.73;9.02;;;;;;;17.41;93.62;102583.47;5058904;28;20054;-47
2022/08/07 07:31:40;;;;;;;17.63;8.93;;;;;;;17.59;92.14;102586.91;5056611;28;20025;-48
2022/08/07 07:34:09;;;;;;;14.43;8.18;;;;;;;17.69;88.45;102584.06;5056131;28;20040;-49
2022/08/07 07:36:38;;;;;;;11.52;7.80;;;;;;;17.97;90.40;102591.91;5055533;28;20060;-50
2022/08/07 07:39:04;;;;;;;12.40;7.65;;;;;;;18.10;87.55;102584.16;5056912;28;20027;-46
2022/08/07 07:41:32;;;;;;;14.32;7.75;;;;;;;18.21;85.30;102578.41;5054686;28;20035;-44
2022/08/07 07:44:03;;;;;;;15.93;7.70;;;;;;;18.30;82.41;102575.72;5055389;28;20070;-46
2022/08/07 07:46:32;;;;;;;11.38;7.88;;;;;;;18.49;82.69;102575.34;5054774;28;20013;-44
2022/08/07 07:49:01;;;;;;;11.98;7.53;;;;;;;18.63;82.51;102573.78;5060073;28;20460;-48
2022/08/07 07:51:27;;;;;;;12.27;7.82;;;;;;;18.84;83.53;102584.09;5071188;28;20027;-47
2022/08/07 07:53:56;;;;;;;15.82;7.50;;;;;;;18.87;77.29;102583.72;5056836;28;20078;-45
2022/08/07 07:56:23;;;;;;;10.13;7.30;;;;;;;18.90;75.75;102583.38;5058126;28;20865;-48
2022/08/07 07:58:50;;;;;;;10.85;7.05;;;;;;;18.89;73.95;102584.44;5058552;28;20548;-46
2022/08/07 08:01:17;;;;;;;10.23;6.95;;;;;;;18.95;75.21;102582.88;5053852;28;20528;-48
2022/08/07 08:03:43;;;;;;;11.13;7.65;;;;;;;19.00;73.04;102586.75;5055650;28;20103;-46
2022/08/07 08:06:11;;;;;;;13.60;7.30;;;;;;;19.14;73.28;102587.88;5055498;28;20134;-46
2022/08/07 08:08:37;;;;;;;12.45;7.55;;;;;;;19.19;69.62;102581.94;5056115;28;20355;-48
2022/08/07 08:11:07;;;;;;;10.55;6.75;;;;;;;19.31;69.88;102579.69;5055844;28;20059;-45
2022/08/07 08:13:34;;;;;;;14.10;6.63;;;;;;;19.32;67.85;102578.66;5060848;28;20021;-48
2022/08/07 08:16:01;;;;;;;10.55;6.45;;;;;;;19.37;65.64;102581.69;5068837;28;20636;-49
2022/08/07 08:18:28;;;;;;;9.25;6.03;;;;;;;19.48;65.67;102580.44;5058556;28;20119;-49
2022/08/07 08:20:59;;;;;;;11.13;6.47;;;;;;;19.59;65.18;102576.50;5062362;28;20084;-49
2022/08/07 08:28:59;;;;;;;12.23;6.28;;;;;;;20.06;65.67;102570.94;5055063;28;20042;-48
2022/08/07 08:31:28;;;;;;;13.80;6.30;;;;;;;20.16;62.53;102577.97;5054516;28;20504;-48
2022/08/07 08:33:55;;;;;;;8.05;6.35;;;;;;;20.21;63.34;102573.66;5056473;28;20485;-47
2022/08/07 08:36:25;;;;;;;9.85;6.63;;;;;;;20.45;67.56;102580.75;5072125;28;20502;-45
2022/08/07 08:38:53;;;;;;;13.73;6.57;;;;;;;20.39;60.96;102577.94;5073605;28;20024;-47
2022/08/07 08:41:30;;;;;;;10.73;6.70;;;;;;;20.53;64.10;102579.00;5056043;28;20016;-49
2022/08/07 08:44:06;;;;;;;11.85;6.20;;;;;;;20.55;59.44;102579.66;5055031;28;20056;-49
2022/08/07 08:46:47;;;;;;;11.70;6.80;;;;;;;20.72;60.96;102583.06;5055212;28;20086;-45
2022/08/07 08:49:30;;;;;;;11.85;6.80;;;;;;;20.77;59.88;102578.75;5055868;28;20031;-46
2022/08/07 08:52:02;;;;;;;12.18;6.20;;;;;;;20.97;59.98;102575.50;5044360;28;20112;-49
2022/08/07 08:55:05;;;;;;;10.32;6.20;;;;;;;21.19;61.92;102570.97;5074143;28;20020;-46
2022/08/07 08:57:41;;;;;;;12.35;6.90;;;;;;;21.29;60.96;102573.41;5060958;28;20041;-49
2022/08/07 09:00:08;;;;;;;8.82;5.30;;;;;;;21.30;56.14;102566.91;5068007;28;20714;-45
2022/08/07 09:02:43;;;;;;;8.05;5.30;;;;;;;21.27;56.24;102570.03;5053792;28;20037;-45
2022/08/07 09:05:33;;;;;;;9.77;5.78;;;;;;;21.40;55.93;102567.44;5054469;28;20098;-50
2022/08/07 09:08:12;;;;;;;8.68;5.32;;;;;;;21.36;53.33;102563.44;5049993;28;20044;-49
2022/08/07 09:10:47;;;;;;;6.63;4.10;;;;;;;21.57;57.08;102565.38;5054655;28;20498;-50
2022/08/07 09:13:46;;;;;;;7.68;4.68;;;;;;;21.56;54.39;102567.25;5056770;28;20107;-47
2022/08/07 09:16:27;;;;;;;6.05;4.35;;;;;;;21.65;53.57;102567.97;5060995;28;20577;-50
2022/08/07 09:19:10;;;;;;;9.95;4.38;;;;;;;21.82;54.79;102557.69;5070481;28;20024;-46
2022/08/07 09:21:48;;;;;;;7.70;3.90;;;;;;;21.93;52.65;102550.91;5070633;28;20029;-48
2022/08/07 09:24:25;;;;;;;8.23;4.00;;;;;;;22.19;52.61;102555.72;5057651;28;20035;-49
2022/08/07 09:27:21;;;;;;;10.90;3.45;;;;;;;22.24;50.31;102552.41;5055407;28;20036;-47
2022/08/07 09:30:07;;;;;;;6.32;3.28;;;;;;;22.39;51.69;102563.25;5050293;28;20032;-50
2022/08/07 09:32:41;;;;;;;5.95;3.40;;;;;;;22.32;50.13;102557.75;5059944;28;20448;-50
2022/08/07 09:35:18;;;;;;;6.57;3.80;;;;;;;22.22;50.17;102557.22;5055882;28;20225;-49
2022/08/07 09:37:53;;;;;;;9.85;4.00;;;;;;;22.19;51.09;102553.00;5053987;28;20029;-49
2022/08/07 09:40:39;;;;;;;5.47;3.47;;;;;;;22.17;51.86;102553.19;5055604;28;20034;-47
2022/08/07 09:43:32;;;;;;;4.60;3.40;;;;;;;22.29;50.07;102545.34;5055483;28;20031;-46
2022/08/07 09:46:17;;;;;;;9.13;3.63;;;;;;;22.67;51.57;102552.31;5048214;28;20035;-47
2022/08/07 09:48:57;;;;;;;9.68;5.65;;;;;;;22.75;50.17;102549.44;5052218;28;20967;-47
2022/08/07 09:51:42;;;;;;;4.80;3.38;;;;;;;22.66;48.19;102537.84;5055431;28;20301;-49
2022/08/07 09:54:16;;;;;;;6.32;3.28;;;;;;;22.77;49.37;102541.06;5057624;28;20487;-49
2022/08/07 09:57:09;;;;;;;6.57;3.33;;;;;;;22.89;48.63;102532.09;5057761;28;20024;-47
2022/08/07 09:59:57;;;;;;;5.63;2.90;;;;;;;23.16;50.07;102526.78;5064854;28;20075;-49
2022/08/07 10:02:57;;;;;;;5.47;3.20;;;;;;;23.46;49.56;102527.31;5059949;28;20519;-49
2022/08/07 10:05:37;;;;;;;8.10;3.65;;;;;;;23.57;47.25;102522.28;5072470;28;20028;-46
2022/08/07 10:08:54;;;;;;;5.43;3.35;;;;;;;23.51;44.29;102528.59;5049862;28;20541;-50
2022/08/07 10:11:43;;;;;;;6.25;3.58;;;;;;;23.59;47.58;102518.31;5057931;28;20115;-49
2022/08/07 10:14:40;;;;;;;7.03;3.90;;;;;;;23.62;45.66;102508.88;5057906;28;20035;-48
2022/08/07 10:17:22;;;;;;;9.98;4.47;;;;;;;23.41;45.67;102512.63;5036370;28;20032;-46
2022/08/07 10:20:09;;;;;;;6.72;3.65;;;;;;;23.32;45.91;102511.97;5044092;28;20478;-50
2022/08/07 10:22:56;;;;;;;7.22;3.90;;;;;;;23.54;45.91;102511.78;5058395;28;20540;-49
2022/08/07 10:25:55;;;;;;;10.05;3.63;;;;;;;23.80;46.66;102506.38;5057268;28;20103;-50
2022/08/07 10:28:49;;;;;;;4.03;2.88;;;;;;;24.10;45.52;102500.53;5063220;28;20269;-47
2022/08/07 10:31:58;;;;;;;6.10;3.35;;;;;;;23.95;43.31;102498.00;5055121;28;20029;-47
2022/08/07 10:34:51;;;;;;;5.20;3.00;;;;;;;24.02;44.76;102498.00;5057119;28;20028;-50
2022/08/07 10:37:17;;;;;;;9.10;3.03;;;;;;;24.00;42.97;102502.84;5061225;28;20127;-48
2022/08/07 10:39:49;;;;;;;5.50;3.07;;;;;;;24.15;44.46;102505.34;5061248;28;20032;-50
2022/08/07 10:42:56;;;;;;;4.95;3.47;;;;;;;24.42;44.21;102497.94;5059288;28;20359;-50
2022/08/07 10:45:57;;;;;;;6.40;2.95;;;;;;;24.18;43.48;102497.56;5054903;28;20213;-50
2022/08/07 10:48:34;;;;;;;5.88;3.20;;;;;;;24.09;44.88;102487.09;5016483;28;20101;-50
2022/08/07 10:51:16;;;;;;;5.47;2.97;;;;;;;24.06;44.03;102491.06;5056053;28;20032;-51
2022/08/07 10:53:48;;;;;;;7.68;2.80;;;;;;;24.21;43.18;102485.38;5074498;28;20052;-50
2022/08/07 10:56:38;;;;;;;6.50;2.92;;;;;;;24.10;41.30;102488.75;5057091;28;20868;-50
2022/08/07 10:59:21;;;;;;;6.73;2.83;;;;;;;24.47;43.66;102481.75;5056513;28;20029;-48
2022/08/07 11:02:00;;;;;;;3.30;2.42;;;;;;;24.49;42.87;102478.81;5054489;28;20144;-51
2022/08/07 11:04:56;;;;;;;11.95;2.95;;;;;;;24.84;41.62;102478.50;5053890;28;20056;-49
2022/08/07 11:07:53;;;;;;;6.82;2.90;;;;;;;24.40;40.81;102476.28;5058954;28;20081;-48
2022/08/07 11:10:32;;;;;;;4.20;2.78;;;;;;;24.17;40.54;102471.31;5057333;28;20028;-50
2022/08/07 11:13:05;;;;;;;4.43;2.80;;;;;;;24.26;41.33;102474.66;5056701;28;20337;-49
2022/08/07 11:15:37;;;;;;;4.45;2.45;;;;;;;24.58;43.37;102475.66;5054213;28;20306;-49
2022/08/07 11:18:48;;;;;;;5.18;2.60;;;;;;;24.74;39.85;102468.03;5062176;28;20029;-50
2022/08/07 11:21:24;;;;;;;2.95;2.10;;;;;;;24.98;39.87;102458.25;4963919;28;20053;-50
2022/08/07 11:24:04;;;;;;;3.78;2.10;;;;;;;24.89;37.01;102460.41;4974778;28;20452;-49
2022/08/07 11:26:40;;;;;;;3.22;2.20;;;;;;;25.00;38.72;102450.69;5019944;28;20067;-48
2022/08/07 11:29:09;;;;;;;4.18;1.90;;;;;;;25.24;37.56;102451.78;5065794;28;20024;-50
2022/08/07 11:31:45;;;;;;;4.22;2.03;;;;;;;25.55;37.54;102444.66;5051565;28;20138;-47
2022/08/07 11:34:35;;;;;;;4.25;2.17;;;;;;;25.52;35.97;102444.28;5073408;28;20072;-49
2022/08/07 11:37:11;;;;;;;4.93;2.10;;;;;;;25.56;35.28;102432.66;5064219;28;20097;-48
2022/08/07 11:39:55;;;;;;;2.65;1.90;;;;;;;25.67;36.10;102440.13;5055897;28;20094;-48
2022/08/07 11:42:30;;;;;;;2.90;2.00;;;;;;;25.92;39.73;102439.28;5062895;28;20025;-50
2022/08/07 11:45:17;;;;;;;3.75;1.98;;;;;;;25.66;36.00;102443.94;5055023;28;20028;-51